Time;durP1;ratioP1;P1;durP2;ratioP2;P2;SDS_P1;SDS_P2;PMS_P1;PMS_P2;Temp;Humidity;BMP_temperature;BMP_pressure;BME280_temperature;BME280_humidity;BME280_pressure;Samples;Min_cycle;Max_cycle;Signal;HPM_P1;HPM_P2
2023/09/21 00:01:38;;;;;;;7.50;2.90;;;;;;;20.09;56.97;99755.75;5074796;28;20028;-96
2023/09/21 00:06:49;;;;;;;3.47;2.90;;;;;;;20.32;57.28;99827.69;5067753;28;20055;-96
2023/09/21 00:09:18;;;;;;;4.85;2.53;;;;;;;20.04;57.48;99780.09;5051102;28;20084;-96
2023/09/21 00:11:44;;;;;;;3.70;2.00;;;;;;;20.07;57.26;99779.06;5001350;28;20128;-95
2023/09/21 00:15:29;;;;;;;2.50;2.00;;;;;;;20.53;57.46;99865.88;5015335;28;20464;-96
2023/09/21 00:17:57;;;;;;;2.03;1.35;;;;;;;20.14;58.21;99808.13;4951764;28;20062;-96
2023/09/21 00:20:35;;;;;;;1.77;0.98;;;;;;;20.12;57.77;99793.94;4958532;28;20191;-96
2023/09/21 00:23:06;;;;;;;1.77;1.10;;;;;;;20.08;57.95;99792.38;4930754;29;20439;-96
2023/09/21 00:25:34;;;;;;;2.17;1.52;;;;;;;20.03;58.82;99808.69;4947294;28;20042;-96
2023/09/21 00:28:00;;;;;;;2.55;1.67;;;;;;;19.97;58.64;99771.53;4956001;28;20106;-96
2023/09/21 00:30:26;;;;;;;3.53;2.13;;;;;;;19.89;58.67;99773.72;4954707;28;20059;-96
2023/09/21 00:32:52;;;;;;;2.72;2.03;;;;;;;20.01;58.74;99788.28;4940236;29;20513;-96
2023/09/21 00:45:18;;;;;;;4.63;2.38;;;;;;;20.37;59.11;99847.06;5172396;23;20066;-94
2023/09/21 00:47:52;;;;;;;3.75;3.03;;;;;;;19.93;58.73;99777.13;4962906;28;20055;-96
2023/09/21 00:50:25;;;;;;;3.38;2.03;;;;;;;20.11;59.49;99808.28;4955233;28;20057;-94
2023/09/21 00:52:53;;;;;;;4.95;2.35;;;;;;;20.00;59.32;99795.47;4955683;28;20490;-93
2023/09/21 00:55:24;;;;;;;2.92;1.88;;;;;;;20.00;59.50;99800.81;4955227;28;20114;-94
2023/09/21 00:57:53;;;;;;;4.53;2.55;;;;;;;19.58;59.77;99742.31;4973591;28;20031;-92
2023/09/21 01:00:19;;;;;;;6.00;2.55;;;;;;;19.98;59.74;99810.72;4955172;28;20035;-96
2023/09/21 01:02:47;;;;;;;4.93;2.97;;;;;;;19.93;59.78;99791.38;4975584;28;20026;-96
2023/09/21 01:11:39;;;;;;;2.92;1.85;;;;;;;19.72;59.52;99771.03;5019024;23;20089;-94
2023/09/21 01:14:58;;;;;;;8.80;2.33;;;;;;;19.69;59.90;99766.69;4923548;29;20024;-96
2023/09/21 01:20:32;;;;;;;;;;;;;;;20.20;59.57;99834.59;5601751;23;20054;-96
2023/09/21 01:23:20;;;;;;;5.82;2.35;;;;;;;19.65;59.42;99757.13;4974178;28;20006;-96
2023/09/21 01:25:50;;;;;;;4.55;2.92;;;;;;;19.88;59.43;99795.22;4989362;28;20038;-96
2023/09/21 01:28:23;;;;;;;5.55;2.17;;;;;;;19.81;59.56;99782.16;4976023;28;20069;-96
2023/09/21 01:31:39;;;;;;;3.75;2.08;;;;;;;20.11;59.55;99851.13;4984141;28;20482;-96
2023/09/21 01:34:18;;;;;;;3.85;2.30;;;;;;;19.65;59.23;99771.34;4949839;28;20047;-96
2023/09/21 01:37:26;;;;;;;6.88;1.38;;;;;;;20.03;59.72;99853.31;4991314;28;20035;-96
2023/09/21 01:40:13;;;;;;;2.78;1.80;;;;;;;19.60;59.89;99769.84;4981202;28;20489;-92
2023/09/21 01:42:40;;;;;;;3.40;1.98;;;;;;;19.61;59.64;99785.81;4954166;28;20042;-96
2023/09/21 01:45:13;;;;;;;3.50;1.80;;;;;;;19.75;59.73;99822.56;4974256;28;20117;-96
2023/09/21 01:47:53;;;;;;;3.28;1.88;;;;;;;19.73;59.57;99789.69;4982396;28;20042;-96
2023/09/21 01:50:21;;;;;;;2.45;1.73;;;;;;;19.41;59.52;99759.22;4999547;28;20030;-96
2023/09/21 01:52:46;;;;;;;2.50;1.98;;;;;;;19.41;59.70;99743.19;4962272;28;20093;-96
2023/09/21 01:55:12;;;;;;;3.88;2.00;;;;;;;19.74;59.69;99819.97;4977569;28;20129;-96
2023/09/21 01:57:40;;;;;;;2.55;1.60;;;;;;;19.52;60.20;99785.44;4977602;28;20030;-95
2023/09/21 02:00:12;;;;;;;3.47;2.17;;;;;;;19.76;60.30;99823.47;4967746;28;20035;-96
2023/09/21 02:02:57;;;;;;;4.80;1.92;;;;;;;19.52;60.10;99782.75;4976174;28;20130;-96
2023/09/21 02:05:28;;;;;;;1.02;0.90;;;;;;;19.68;60.19;99832.75;4965273;28;20160;-95
2023/09/21 02:07:56;;;;;;;3.30;2.30;;;;;;;19.45;60.54;99795.59;4961623;28;20035;-93
2023/09/21 02:11:17;;;;;;;3.42;2.45;;;;;;;19.67;60.31;99832.81;4968399;28;20102;-96
2023/09/21 02:14:32;;;;;;;3.30;1.67;;;;;;;19.00;60.79;99767.47;4940951;28;20031;-95
2023/09/21 02:17:24;;;;;;;3.95;2.53;;;;;;;18.53;61.95;99728.72;5036374;23;20129;-96
2023/09/21 02:23:27;;;;;;;13.88;2.55;;;;;;;18.55;61.85;99758.88;5079649;23;20062;-96
2023/09/21 02:26:24;;;;;;;1.45;1.30;;;;;;;18.77;61.78;99777.47;4927849;29;20060;-94
2023/09/21 02:36:31;;;;;;;3.63;1.65;;;;;;;18.49;62.05;99741.38;5084102;23;20060;-96
2023/09/21 02:38:57;;;;;;;3.97;2.00;;;;;;;18.50;62.05;99755.56;4929938;29;20063;-96
2023/09/21 02:41:37;;;;;;;3.83;2.40;;;;;;;19.04;62.36;99839.44;4925415;29;20048;-96
2023/09/21 02:44:40;;;;;;;3.55;2.78;;;;;;;19.14;61.88;99846.09;4889038;29;20057;-96
2023/09/21 03:02:33;;;;;;;2.83;1.55;;;;;;;18.47;63.10;99766.41;5044765;23;20096;-94
2023/09/21 03:05:00;;;;;;;2.88;1.70;;;;;;;18.69;63.03;99791.19;4994496;28;20035;-93
2023/09/21 03:07:27;;;;;;;3.53;1.95;;;;;;;18.65;62.99;99778.03;5012635;28;20037;-90
2023/09/21 03:09:54;;;;;;;4.72;2.83;;;;;;;18.83;62.91;99784.28;4980106;28;20041;-95
2023/09/21 03:12:20;;;;;;;2.58;1.52;;;;;;;18.77;62.86;99799.69;4979581;28;20038;-94
2023/09/21 03:14:46;;;;;;;3.65;2.72;;;;;;;18.57;62.90;99767.72;4979038;28;20034;-94
2023/09/21 03:17:14;;;;;;;1.45;1.30;;;;;;;18.78;62.76;99790.75;4990078;28;20045;-92
2023/09/21 03:19:40;;;;;;;3.47;1.73;;;;;;;18.74;62.98;99785.63;5012573;28;20165;-90
2023/09/21 03:22:06;;;;;;;7.78;2.08;;;;;;;18.88;62.43;99798.34;5010583;28;20026;-92
2023/09/21 03:24:33;;;;;;;7.43;1.88;;;;;;;18.99;62.39;99820.09;4994328;28;20100;-94
2023/09/21 03:26:59;;;;;;;2.25;2.00;;;;;;;18.90;62.36;99801.81;4971928;28;20046;-94
2023/09/21 03:29:26;;;;;;;4.57;2.30;;;;;;;18.93;62.28;99807.88;4992336;28;20040;-96
2023/09/21 03:31:55;;;;;;;4.72;2.63;;;;;;;18.95;61.85;99815.81;4994464;28;20040;-92
2023/09/21 03:34:20;;;;;;;3.85;1.92;;;;;;;18.97;61.89;99813.97;5012228;28;20036;-89
2023/09/21 03:36:47;;;;;;;2.58;1.48;;;;;;;19.03;62.37;99832.38;4997712;28;20121;-94
2023/09/21 03:39:17;;;;;;;3.47;1.80;;;;;;;18.59;62.86;99773.84;4992426;28;20042;-90
2023/09/21 03:41:46;;;;;;;3.55;2.08;;;;;;;19.01;63.88;99881.50;4975525;28;20030;-91
2023/09/21 03:44:11;;;;;;;2.58;1.77;;;;;;;18.57;63.96;99819.31;4992419;28;20033;-91
2023/09/21 03:46:38;;;;;;;1.83;1.63;;;;;;;18.45;63.64;99805.69;4992886;28;20117;-89
2023/09/21 03:49:04;;;;;;;4.72;2.92;;;;;;;18.27;63.24;99783.34;5004899;28;20492;-91
2023/09/21 03:51:31;;;;;;;4.68;2.95;;;;;;;18.44;63.56;99820.81;4999370;28;20420;-93
2023/09/21 03:53:59;;;;;;;3.60;1.90;;;;;;;18.49;63.82;99810.81;4992815;28;20042;-93
2023/09/21 03:56:26;;;;;;;14.35;1.75;;;;;;;18.33;64.21;99807.09;4975989;28;20133;-95
2023/09/21 03:58:51;;;;;;;3.72;1.95;;;;;;;18.19;64.20;99784.53;4963875;28;20040;-95
2023/09/21 04:01:17;;;;;;;5.18;2.78;;;;;;;18.39;65.05;99825.50;4994971;28;20050;-96
2023/09/21 04:03:53;;;;;;;6.57;3.63;;;;;;;18.19;64.79;99802.38;4994773;28;20536;-94
2023/09/21 04:06:18;;;;;;;2.80;1.98;;;;;;;18.15;64.26;99793.63;5011094;28;20566;-89
2023/09/21 04:08:46;;;;;;;6.47;2.50;;;;;;;18.11;64.36;99801.84;5011085;28;20034;-89
2023/09/21 04:11:12;;;;;;;7.25;4.28;;;;;;;18.30;64.00;99832.13;5009404;28;20111;-90
2023/09/21 04:13:37;;;;;;;4.60;2.58;;;;;;;18.29;63.75;99827.72;5011006;28;20492;-91
2023/09/21 04:16:05;;;;;;;10.05;2.85;;;;;;;18.12;64.82;99803.56;5010676;28;20037;-91
2023/09/21 04:18:31;;;;;;;2.75;1.73;;;;;;;17.89;65.30;99805.47;4990977;28;20042;-90
2023/09/21 04:20:57;;;;;;;3.92;1.85;;;;;;;17.94;65.28;99799.94;4976325;28;20030;-89
2023/09/21 04:23:24;;;;;;;3.05;2.65;;;;;;;17.88;65.93;99801.03;4984479;28;20034;-89
2023/09/21 04:25:50;;;;;;;17.95;2.50;;;;;;;17.79;65.75;99796.94;4991357;28;20038;-89
2023/09/21 04:28:15;;;;;;;3.88;2.53;;;;;;;17.97;65.49;99813.13;4992254;28;20029;-89
2023/09/21 04:30:41;;;;;;;9.52;4.47;;;;;;;17.91;65.23;99800.91;4994550;28;20041;-89
2023/09/21 04:33:06;;;;;;;4.00;2.80;;;;;;;17.93;64.65;99799.03;4991012;28;20489;-88
2023/09/21 04:35:32;;;;;;;8.60;2.55;;;;;;;18.47;64.38;99868.75;4998422;28;20080;-90
2023/09/21 04:37:58;;;;;;;3.13;2.38;;;;;;;17.96;65.91;99830.06;5010437;28;20381;-88
2023/09/21 04:40:26;;;;;;;2.58;1.27;;;;;;;18.05;65.90;99817.19;5009266;28;20416;-88
2023/09/21 04:42:51;;;;;;;4.97;2.63;;;;;;;18.34;66.37;99848.88;5010646;28;20524;-91
2023/09/21 04:45:18;;;;;;;5.70;2.53;;;;;;;18.29;66.16;99809.03;4990092;28;20048;-89
2023/09/21 04:47:49;;;;;;;8.35;2.92;;;;;;;18.51;66.12;99813.41;4990630;28;20030;-86
2023/09/21 04:50:19;;;;;;;8.05;3.25;;;;;;;18.65;66.19;99832.31;4991507;28;20027;-89
2023/09/21 04:52:48;;;;;;;4.28;2.63;;;;;;;18.71;66.49;99840.06;4995565;28;20030;-90
2023/09/21 04:55:16;;;;;;;4.18;3.45;;;;;;;18.75;65.93;99827.41;5010372;28;20038;-89
2023/09/21 04:57:44;;;;;;;5.88;3.42;;;;;;;18.81;66.53;99827.13;5007537;28;20488;-90
2023/09/21 05:00:12;;;;;;;4.82;3.42;;;;;;;18.76;66.84;99805.97;5000098;28;20034;-88
2023/09/21 05:02:37;;;;;;;4.88;2.33;;;;;;;18.93;65.63;99797.19;5009499;28;20073;-89
2023/09/21 05:05:03;;;;;;;1.45;1.27;;;;;;;18.89;65.85;99808.09;5007426;28;20495;-90
2023/09/21 05:07:29;;;;;;;5.25;4.22;;;;;;;19.11;65.96;99837.34;5013964;28;20037;-90
2023/09/21 05:09:55;;;;;;;4.63;2.53;;;;;;;19.01;65.09;99775.44;4996597;28;20038;-92
2023/09/21 05:12:40;;;;;;;6.28;3.45;;;;;;;19.20;64.77;99820.88;4996430;28;20034;-91
2023/09/21 05:15:08;;;;;;;4.00;2.63;;;;;;;19.11;65.35;99818.63;4981893;28;20475;-91
2023/09/21 05:17:36;;;;;;;2.33;1.92;;;;;;;19.32;65.14;99830.97;4994124;28;20049;-90
2023/09/21 05:20:04;;;;;;;3.47;2.42;;;;;;;19.40;65.05;99830.59;4994406;28;20030;-83
2023/09/21 05:22:30;;;;;;;3.25;2.33;;;;;;;19.46;64.57;99775.91;4993434;28;20149;-83
2023/09/21 05:24:55;;;;;;;4.97;2.35;;;;;;;19.68;63.86;99799.78;4993803;28;20057;-83
2023/09/21 05:27:21;;;;;;;1.92;1.73;;;;;;;20.28;63.66;99847.56;4993176;28;20389;-84
2023/09/21 05:29:47;;;;;;;4.85;3.00;;;;;;;20.00;63.19;99790.09;4993157;28;20038;-85
2023/09/21 05:32:13;;;;;;;4.57;2.92;;;;;;;20.44;62.46;99831.53;4996921;28;20040;-84
2023/09/21 05:34:39;;;;;;;4.82;2.88;;;;;;;20.75;62.10;99840.63;5002046;28;20456;-84
2023/09/21 05:37:04;;;;;;;5.15;3.17;;;;;;;20.83;61.57;99867.84;5009469;28;20033;-82
2023/09/21 05:39:30;;;;;;;22.60;5.10;;;;;;;20.93;61.61;99870.91;4982832;28;20053;-81
2023/09/21 05:41:57;;;;;;;8.75;2.65;;;;;;;21.08;61.18;99867.34;4999381;28;20045;-81
2023/09/21 05:44:25;;;;;;;2.95;2.50;;;;;;;21.25;60.69;99850.31;4993901;28;20122;-83
2023/09/21 05:46:51;;;;;;;4.47;3.20;;;;;;;21.75;58.98;99883.28;4977807;28;20480;-83
2023/09/21 05:49:23;;;;;;;4.78;2.20;;;;;;;21.73;58.98;99893.22;4992871;28;20094;-84
2023/09/21 05:51:58;;;;;;;4.97;3.22;;;;;;;21.82;58.71;99902.56;5002989;28;20112;-85
2023/09/21 05:54:24;;;;;;;4.70;3.25;;;;;;;21.75;58.65;99904.75;5006396;28;20034;-84
2023/09/21 05:56:53;;;;;;;2.55;2.08;;;;;;;21.70;58.30;99874.63;5006158;28;20036;-84
2023/09/21 05:59:19;;;;;;;3.88;2.35;;;;;;;21.85;58.01;99890.81;5002811;28;20034;-84
2023/09/21 06:01:45;;;;;;;11.80;2.42;;;;;;;22.00;57.83;99879.16;5002111;28;20042;-85
2023/09/21 06:04:12;;;;;;;5.65;3.75;;;;;;;21.93;57.84;99864.34;5007099;28;20034;-84
2023/09/21 06:06:38;;;;;;;3.90;2.63;;;;;;;21.86;58.14;99873.72;4992802;28;20076;-84
2023/09/21 06:09:05;;;;;;;3.83;2.03;;;;;;;21.68;59.30;99897.16;4998595;28;20026;-82
2023/09/21 06:11:30;;;;;;;4.00;2.22;;;;;;;21.39;59.60;99873.66;4999465;28;20033;-84
2023/09/21 06:13:56;;;;;;;5.68;3.10;;;;;;;21.63;59.85;99900.09;4993803;28;20026;-82
2023/09/21 06:16:22;;;;;;;3.78;2.38;;;;;;;21.60;60.07;99903.81;5004638;28;20482;-83
2023/09/21 06:18:48;;;;;;;3.05;1.80;;;;;;;21.53;59.83;99886.31;4993883;28;20572;-83
2023/09/21 06:21:15;;;;;;;4.47;3.17;;;;;;;21.69;60.16;99909.59;5002293;28;20058;-82
2023/09/21 06:23:44;;;;;;;4.57;2.40;;;;;;;21.70;59.60;99885.34;5003328;28;20077;-83
2023/09/21 06:26:14;;;;;;;5.70;4.13;;;;;;;21.78;59.36;99904.59;4992547;28;20069;-88
2023/09/21 06:28:43;;;;;;;5.75;3.67;;;;;;;21.54;59.38;99861.22;5004439;28;20034;-87
2023/09/21 06:31:09;;;;;;;3.85;2.63;;;;;;;21.72;59.05;99882.59;4974616;28;20481;-87
2023/09/21 06:33:34;;;;;;;3.92;2.78;;;;;;;21.53;59.39;99875.59;4991154;28;20023;-87
2023/09/21 06:36:00;;;;;;;24.02;3.15;;;;;;;21.68;59.35;99878.38;4993337;28;20501;-89
2023/09/21 06:38:26;;;;;;;5.13;2.95;;;;;;;21.70;59.23;99874.63;4993082;28;20029;-89
2023/09/21 06:40:51;;;;;;;5.25;2.97;;;;;;;21.70;58.61;99841.56;4993133;28;20037;-89
2023/09/21 06:43:17;;;;;;;5.78;3.40;;;;;;;21.64;59.10;99854.38;4994059;28;20026;-90
2023/09/21 06:45:42;;;;;;;4.53;2.78;;;;;;;21.93;59.39;99892.06;4992763;28;20034;-86
2023/09/21 06:48:11;;;;;;;10.60;3.17;;;;;;;21.95;59.12;99873.19;4992232;28;20065;-89
2023/09/21 06:50:40;;;;;;;5.70;3.10;;;;;;;22.02;58.92;99863.81;4974208;28;20026;-88
2023/09/21 06:53:06;;;;;;;6.78;3.50;;;;;;;22.12;58.65;99874.84;4991995;28;20030;-89
2023/09/21 06:55:32;;;;;;;7.25;3.40;;;;;;;22.20;59.00;99901.25;4992936;28;20428;-87
2023/09/21 06:57:57;;;;;;;5.20;3.38;;;;;;;22.13;58.87;99874.75;4974002;28;20049;-91
2023/09/21 07:00:23;;;;;;;5.60;2.70;;;;;;;21.98;58.30;99830.91;4991875;28;20057;-89
2023/09/21 07:02:48;;;;;;;9.98;3.22;;;;;;;22.51;58.47;99893.09;4991486;28;20097;-92
2023/09/21 07:05:14;;;;;;;4.68;3.20;;;;;;;22.34;58.57;99869.94;4991811;28;20436;-88
2023/09/21 07:07:42;;;;;;;8.63;3.28;;;;;;;21.92;58.72;99835.75;4991063;28;20524;-90
2023/09/21 07:10:10;;;;;;;11.63;3.25;;;;;;;22.28;58.38;99837.19;4973534;28;20488;-89
2023/09/21 07:12:39;;;;;;;13.23;2.30;;;;;;;22.26;58.13;99847.16;4991601;28;20566;-89
2023/09/21 07:15:07;;;;;;;2.97;1.95;;;;;;;22.51;56.80;99865.38;4991329;28;20072;-88
2023/09/21 07:18:07;;;;;;;2.15;1.45;;;;;;;22.73;56.37;99840.69;4991373;28;20030;-91
2023/09/21 07:20:36;;;;;;;1.75;1.25;;;;;;;22.96;56.51;99855.34;4973822;28;20077;-90
2023/09/21 07:23:03;;;;;;;2.10;1.48;;;;;;;23.38;55.71;99891.22;4972857;28;20433;-90
2023/09/21 07:25:43;;;;;;;2.22;1.52;;;;;;;23.33;54.17;99836.00;4990651;28;20505;-90
2023/09/21 07:28:08;;;;;;;3.70;1.88;;;;;;;23.81;54.09;99855.22;4991270;28;20361;-88
2023/09/21 07:30:35;;;;;;;2.13;1.65;;;;;;;23.89;53.77;99839.44;4990119;28;20037;-89
2023/09/21 07:33:01;;;;;;;6.82;2.00;;;;;;;24.19;52.75;99850.88;4991144;28;20113;-89
2023/09/21 07:35:27;;;;;;;18.80;2.33;;;;;;;24.29;52.56;99842.06;4973286;28;20146;-89
2023/09/21 07:37:54;;;;;;;3.97;1.83;;;;;;;23.98;52.20;99839.78;4973265;28;20034;-89
2023/09/21 07:40:21;;;;;;;2.08;1.60;;;;;;;24.00;52.19;99819.84;4991308;28;20026;-89
2023/09/21 07:42:48;;;;;;;3.83;2.05;;;;;;;24.26;51.58;99857.59;4989893;28;20045;-89
2023/09/21 07:45:24;;;;;;;10.38;1.98;;;;;;;24.21;51.52;99822.88;4972620;28;20106;-91
2023/09/21 07:47:52;;;;;;;3.05;2.00;;;;;;;24.29;50.24;99835.81;4973326;28;20042;-91
2023/09/21 07:50:23;;;;;;;3.90;2.17;;;;;;;24.39;50.40;99841.41;4990362;28;20042;-90
2023/09/21 07:52:53;;;;;;;4.03;2.45;;;;;;;24.41;51.55;99844.88;4977726;28;20033;-89
2023/09/21 07:56:12;;;;;;;2.75;1.77;;;;;;;24.46;50.17;99840.88;4990709;28;20035;-87
2023/09/21 08:19:47;;;;;;;3.00;2.38;;;;;;;25.06;50.60;99835.75;4713382;30;20045;-90
2023/09/21 08:58:56;;;;;;;2.72;1.38;;;;;;;25.34;48.61;99855.34;5009795;28;20070;-93
2023/09/21 09:02:00;;;;;;;;;;;;;;;;;;;;;
2023/09/21 09:07:54;;;;;;;2.63;1.88;;;;;;;25.41;48.70;99836.84;4817891;29;20051;-87
2023/09/21 09:10:20;;;;;;;3.50;1.63;;;;;;;25.60;48.30;99829.09;4805421;29;20035;-88
2023/09/21 09:12:49;;;;;;;3.95;2.22;;;;;;;25.74;48.46;99841.56;4806935;29;20123;-88
2023/09/21 09:19:14;;;;;;;3.03;1.88;;;;;;;26.01;48.39;99822.41;4807694;29;20036;-89
2023/09/21 09:21:54;;;;;;;4.28;1.65;;;;;;;26.00;48.36;99814.41;4792668;29;20043;-92
2023/09/21 09:27:49;;;;;;;4.13;1.55;;;;;;;26.55;46.90;99806.47;5231168;23;20046;-93
2023/09/21 09:30:38;;;;;;;5.55;2.35;;;;;;;26.71;45.57;99807.00;4997440;28;20049;-93
2023/09/21 09:35:59;;;;;;;13.48;9.77;;;;;;;26.39;44.74;99805.00;5992972;23;20025;-93
2023/09/21 09:38:34;;;;;;;5.10;3.97;;;;;;;26.49;44.09;99755.59;5012335;28;20041;-91
2023/09/21 09:41:31;;;;;;;3.03;1.75;;;;;;;26.68;43.75;99791.03;5012187;28;20026;-88
2023/09/21 09:44:05;;;;;;;3.10;1.30;;;;;;;26.40;44.67;99801.31;5013712;28;20034;-91
2023/09/21 09:47:09;;;;;;;4.45;1.75;;;;;;;26.52;44.74;99791.34;5029304;23;20042;-91
2023/09/21 09:49:38;;;;;;;2.38;1.33;;;;;;;27.07;44.76;99813.09;5014293;28;20238;-92
2023/09/21 09:54:39;;;;;;;;;;;;;;;27.26;43.58;99831.38;5468551;23;20046;-94
2023/09/21 09:57:13;;;;;;;2.15;1.08;;;;;;;26.80;44.20;99772.91;4999446;28;19932;-92
2023/09/21 09:59:42;;;;;;;10.88;2.05;;;;;;;26.90;44.68;99768.47;4998075;28;20080;-94
2023/09/21 10:02:44;;;;;;;;;;;;;;;;;;;;;
2023/09/21 10:06:00;;;;;;;3.28;2.80;;;;;;;27.04;44.32;99767.34;5015021;28;20072;-92
2023/09/21 10:08:29;;;;;;;5.10;2.78;;;;;;;27.15;42.81;99742.09;5016081;28;20027;-93
2023/09/21 10:10:57;;;;;;;2.78;1.30;;;;;;;27.51;43.15;99773.38;5024920;28;20026;-93
2023/09/21 10:14:07;;;;;;;;;;;;;;;;;;;;;
2023/09/21 10:16:38;;;;;;;2.50;1.77;;;;;;;27.86;42.72;99768.63;5018374;28;20038;-92
2023/09/21 10:19:06;;;;;;;5.85;1.98;;;;;;;27.65;41.71;99730.69;5001218;28;20038;-94
2023/09/21 10:21:43;;;;;;;2.88;1.77;;;;;;;27.85;42.05;99729.84;5017323;28;20033;-93
2023/09/21 10:24:18;;;;;;;4.55;2.17;;;;;;;27.95;42.30;99753.44;5017335;28;20030;-91
2023/09/21 10:26:58;;;;;;;3.90;2.28;;;;;;;27.74;43.83;99732.59;5000851;28;20026;-89
2023/09/21 10:29:32;;;;;;;1.33;1.02;;;;;;;28.14;42.37;99728.28;4999818;28;20070;-93
2023/09/21 10:32:09;;;;;;;5.20;1.77;;;;;;;28.01;41.67;99721.25;5001178;28;20038;-92
2023/09/21 10:35:21;;;;;;;2.55;1.85;;;;;;;28.44;40.78;99769.97;5001036;28;20031;-92
2023/09/21 10:37:55;;;;;;;2.78;1.70;;;;;;;27.96;40.91;99734.34;5000109;28;20095;-91
2023/09/21 10:40:26;;;;;;;2.25;1.42;;;;;;;28.25;42.64;99730.06;4999243;28;20041;-94
2023/09/21 10:42:52;;;;;;;4.13;2.05;;;;;;;28.39;41.42;99730.56;5017354;28;20022;-89
2023/09/21 10:45:18;;;;;;;6.00;2.00;;;;;;;28.30;41.63;99690.69;5036739;28;20089;-90
2023/09/21 10:47:49;;;;;;;2.00;1.13;;;;;;;28.04;41.31;99698.44;5016652;28;20037;-89
2023/09/21 10:50:20;;;;;;;3.17;1.95;;;;;;;27.99;41.50;99725.06;5008154;28;20476;-91
2023/09/21 10:52:55;;;;;;;2.13;1.55;;;;;;;28.01;42.02;99696.84;5003611;28;20042;-89
2023/09/21 10:55:27;;;;;;;2.17;1.55;;;;;;;27.81;41.71;99690.44;4997980;28;20058;-88
2023/09/21 10:57:56;;;;;;;2.45;1.27;;;;;;;27.65;43.18;99685.50;4978677;28;20615;-89
2023/09/21 11:00:22;;;;;;;3.45;1.90;;;;;;;27.99;43.12;99704.25;5000828;28;20030;-87
2023/09/21 11:02:49;;;;;;;3.42;1.88;;;;;;;27.74;41.20;99651.31;4981247;28;20085;-90
2023/09/21 11:05:19;;;;;;;2.92;1.63;;;;;;;28.28;41.07;99732.50;4997812;28;20090;-88
2023/09/21 11:07:54;;;;;;;1.20;1.02;;;;;;;28.31;40.48;99699.69;4965014;28;20039;-88
2023/09/21 11:10:20;;;;;;;;;;;;;;;28.55;40.49;99721.03;4995790;28;20038;-86
2023/09/21 11:12:45;;;;;;;10.60;2.15;;;;;;;28.31;40.61;99683.41;4977008;28;19914;-87
2023/09/21 11:15:16;;;;;;;4.78;2.35;;;;;;;28.51;41.03;99706.88;4995328;28;20117;-87
2023/09/21 11:17:44;;;;;;;7.38;3.20;;;;;;;28.19;40.46;99650.09;4997730;28;20416;-89
2023/09/21 11:20:14;;;;;;;2.35;1.77;;;;;;;27.82;40.92;99650.63;5000251;28;20092;-88
2023/09/21 11:22:49;;;;;;;4.45;2.40;;;;;;;28.10;41.49;99689.75;4995798;28;20030;-86
2023/09/21 11:25:26;;;;;;;7.75;3.00;;;;;;;28.11;41.29;99647.22;4996330;28;20034;-87
2023/09/21 11:28:10;;;;;;;3.17;1.80;;;;;;;28.49;41.18;99683.63;4977776;28;20030;-86
2023/09/21 11:30:38;;;;;;;12.45;2.20;;;;;;;27.95;41.38;99637.75;4980035;28;20034;-86
2023/09/21 11:33:04;;;;;;;4.40;2.42;;;;;;;28.27;41.12;99662.97;4996090;28;20651;-87
2023/09/21 11:35:30;;;;;;;5.03;2.13;;;;;;;27.94;42.07;99649.53;4995290;28;20073;-86
2023/09/21 11:37:56;;;;;;;3.13;1.70;;;;;;;27.99;41.45;99641.03;4978023;28;20026;-86
2023/09/21 11:40:39;;;;;;;3.58;2.17;;;;;;;28.14;42.11;99609.00;4981544;28;20030;-89
2023/09/21 11:43:17;;;;;;;4.00;1.95;;;;;;;28.18;40.62;99618.59;4982355;28;20061;-87
2023/09/21 11:45:47;;;;;;;2.80;2.13;;;;;;;28.73;40.27;99666.97;4981012;28;20026;-86
2023/09/21 11:48:13;;;;;;;2.50;1.73;;;;;;;28.85;40.79;99673.16;4996579;28;20026;-87
2023/09/21 11:50:50;;;;;;;2.80;1.55;;;;;;;28.68;39.61;99601.41;4993989;28;20034;-89
2023/09/21 11:53:19;;;;;;;3.08;1.90;;;;;;;28.55;40.12;99620.66;4979870;28;20042;-87
2023/09/21 11:56:05;;;;;;;4.18;1.70;;;;;;;28.49;40.16;99607.66;4980830;28;20070;-90
2023/09/21 11:58:33;;;;;;;1.80;1.30;;;;;;;28.48;40.78;99576.94;4995592;28;20027;-88
2023/09/21 12:03:33;;;;;;;3.72;2.22;;;;;;;28.95;39.81;99568.16;4991988;28;20025;-88
2023/09/21 12:05:59;;;;;;;9.60;1.27;;;;;;;29.12;39.67;99604.56;4994136;28;20022;-85
2023/09/21 12:08:26;;;;;;;3.22;2.10;;;;;;;29.31;39.00;99589.28;4978285;28;20034;-87
2023/09/21 12:10:53;;;;;;;2.95;1.70;;;;;;;29.46;38.71;99591.38;4976725;28;20036;-87
2023/09/21 12:13:24;;;;;;;2.30;1.75;;;;;;;29.39;39.84;99578.53;4974880;28;20033;-89
2023/09/21 12:15:55;;;;;;;2.58;1.70;;;;;;;29.52;38.61;99603.53;4991402;28;20034;-87
2023/09/21 12:18:29;;;;;;;12.68;3.05;;;;;;;29.57;39.52;99616.66;4993351;28;20026;-89
2023/09/21 12:21:10;;;;;;;3.55;2.08;;;;;;;29.53;38.66;99609.81;4994837;28;20084;-89
2023/09/21 12:23:38;;;;;;;3.42;2.50;;;;;;;29.22;39.43;99561.97;4975170;28;20030;-91
2023/09/21 12:26:04;;;;;;;7.82;2.38;;;;;;;29.25;39.05;99574.41;4980512;28;20025;-91
2023/09/21 12:28:36;;;;;;;2.50;1.58;;;;;;;29.42;37.87;99554.63;4997926;28;20468;-92
2023/09/21 12:31:14;;;;;;;5.03;2.40;;;;;;;29.42;39.03;99567.38;4990708;28;20509;-93
2023/09/21 12:37:27;;;;;;;4.97;2.60;;;;;;;29.56;38.29;99582.34;4948835;28;20412;-90
2023/09/21 12:42:52;;;;;;;3.45;2.25;;;;;;;29.98;37.98;99532.97;4894745;29;20065;-93
2023/09/21 12:45:40;;;;;;;3.95;1.75;;;;;;;30.31;37.08;99539.63;4878205;29;20498;-90
2023/09/21 12:48:52;;;;;;;4.95;2.30;;;;;;;30.60;36.20;99584.84;4900366;29;20059;-94
2023/09/21 12:51:43;;;;;;;3.20;1.75;;;;;;;30.44;36.65;99595.56;4837417;29;20042;-90
2023/09/21 12:58:26;;;;;;;1.75;1.50;;;;;;;30.47;36.24;99582.50;4766882;30;20044;-93
2023/09/21 13:14:53;;;;;;;3.65;1.80;;;;;;;30.11;35.37;99506.25;4709630;30;20061;-93
2023/09/21 13:20:34;;;;;;;;;;;;;;;;;;;;;
2023/09/21 13:27:09;;;;;;;6.97;1.83;;;;;;;30.16;35.00;99474.00;4716473;30;20098;-94
2023/09/21 13:30:33;;;;;;;2.78;2.00;;;;;;;30.50;35.20;99543.25;4709760;30;20141;-95
2023/09/21 13:36:56;;;;;;;2.90;1.48;;;;;;;29.97;35.08;99468.72;4676313;30;20041;-92
2023/09/21 13:43:24;;;;;;;2.88;1.85;;;;;;;30.14;35.86;99489.63;4715050;30;20045;-93
2023/09/21 13:46:09;;;;;;;17.13;3.05;;;;;;;30.04;36.42;99461.66;4714940;30;20536;-92
2023/09/21 13:49:10;;;;;;;5.53;2.88;;;;;;;30.24;36.78;99522.19;4733311;30;20055;-95
2023/09/21 13:51:52;;;;;;;2.42;1.58;;;;;;;29.61;36.79;99471.31;4751575;30;20052;-95
2023/09/21 13:54:31;;;;;;;4.60;1.70;;;;;;;29.72;36.88;99483.84;4752996;30;20059;-92
2023/09/21 14:00:49;;;;;;;3.83;1.55;;;;;;;29.61;37.53;99495.78;4787306;30;20050;-94
2023/09/21 14:03:22;;;;;;;8.93;2.38;;;;;;;29.22;37.86;99495.94;4786803;30;20084;-93
2023/09/21 14:05:49;;;;;;;3.60;1.77;;;;;;;29.16;38.24;99491.91;4767409;30;20083;-88
2023/09/21 14:08:21;;;;;;;5.78;2.33;;;;;;;29.68;38.50;99567.56;4766687;30;20051;-87
2023/09/21 14:10:48;;;;;;;3.03;1.75;;;;;;;29.54;38.17;99519.16;4767153;30;20068;-85
2023/09/21 14:13:15;;;;;;;3.30;2.45;;;;;;;29.22;38.52;99494.06;4819437;29;20060;-87
2023/09/21 14:15:41;;;;;;;6.13;2.00;;;;;;;29.29;38.59;99499.78;4838666;29;20137;-87
2023/09/21 14:18:07;;;;;;;2.47;1.63;;;;;;;29.29;38.26;99514.22;4854653;29;20064;-88
2023/09/21 14:20:33;;;;;;;2.70;1.77;;;;;;;29.20;38.46;99511.53;4889141;29;20134;-92
2023/09/21 14:22:59;;;;;;;3.70;1.70;;;;;;;29.47;38.83;99540.59;4897604;29;20157;-88
2023/09/21 14:25:25;;;;;;;5.03;2.08;;;;;;;29.15;38.67;99497.50;4913316;29;20088;-88
2023/09/21 14:27:50;;;;;;;10.27;3.58;;;;;;;28.99;39.21;99495.41;4897501;29;20071;-89
2023/09/21 14:30:16;;;;;;;7.13;2.90;;;;;;;29.12;39.26;99520.41;4913320;29;20111;-84
2023/09/21 14:32:43;;;;;;;4.80;3.25;;;;;;;29.35;39.50;99549.94;4897593;29;20396;-85
2023/09/21 14:35:09;;;;;;;3.47;2.00;;;;;;;29.19;39.52;99543.22;4967342;28;20101;-82
2023/09/21 14:37:37;;;;;;;4.55;2.75;;;;;;;29.16;39.48;99529.94;4992028;28;20034;-90
2023/09/21 14:40:05;;;;;;;4.43;1.80;;;;;;;29.03;39.42;99513.97;4975988;28;20408;-91
2023/09/21 14:42:31;;;;;;;2.53;1.67;;;;;;;28.84;39.88;99506.72;4992904;28;20536;-88
2023/09/21 14:44:57;;;;;;;3.72;1.55;;;;;;;29.01;39.73;99532.28;4994328;28;20050;-91
2023/09/21 14:47:30;;;;;;;3.30;1.60;;;;;;;28.94;39.79;99515.69;5010456;28;20121;-90
2023/09/21 14:50:31;;;;;;;4.20;2.05;;;;;;;29.27;40.05;99572.41;4975259;28;20069;-95
2023/09/21 14:52:56;;;;;;;3.55;2.55;;;;;;;28.96;40.32;99539.97;4993150;28;20057;-92